Terminal Aerodrome Forecast
Issued by NWS Louisville, KY

Home | Current Version | Previous Version | Text Only | Print | Product List | Glossary On
Versions: 1 2 3 4 5 6 7 8 9 10 11 12 13 14 15 16
028
FTUS43 KLMK 262129 AAA
TAFSDF
TAF AMD
KSDF 262129Z 2621/2724 17010KT P6SM FEW080 BKN150
     FM270000 17005KT 6SM HZ FEW050 SCT150 BKN250
     FM271600 19010KT P6SM SCT050=

USA.gov is the U.S. government's official web portal to all federal, state and local government web resources and services.